Flight Track Log - Related Links

Times and Time Zones

All times are in EDT time to prevent confusion due to time zone crossing. See the SWA2702 flight status page for this flight to view local times or setup timezone preferences in your user account.

Time Position Orientation Groundspeed Altitude Reporting Facility
EDT Latitude Longitude Course Direction KTS MPH feet Rate Location/Type
Sat 11:09:46 AM 33.4333 -111.9833 20° North 165 190 2,400  Level Phoenix TRACON
Sat 11:09:46 AM 33.4333 -111.9833 20° North 165 190 2,400 2,261 Level Phoenix TRACON
Sat 11:12:04 AM 33.4656 -111.8153 77° East 282 325 7,600 2,261 Climbing Albuquerque Center
Sat 11:12:04 AM 33.4656 -111.8153 77° East 282 325 7,600 3,194 Level Albuquerque Center
Sat 11:13:06 AM 33.5122 -111.7389 54° Northeast 287 330 10,900 3,194 Climbing Albuquerque Center
Sat 11:13:06 AM 33.5122 -111.7389 54° Northeast 287 330 10,900 2,516 Level Albuquerque Center
Sat 11:14:08 AM 33.5947 -111.7117 15° North 313 360 13,500 2,516 Climbing Albuquerque Center
Sat 11:14:08 AM 33.5947 -111.7117 15° North 313 360 13,500 1,935 Level Albuquerque Center
Sat 11:15:00 AM 34.0829 -111.7191 20° North  Level FlightAware Approximate
Sat 11:15:00 AM 34.0829 -111.7191 20° North  Level FlightAware Approximate
Sat 11:15:10 AM 33.6933 -111.7158 358° North 356 410 15,500  Level Albuquerque Center
Sat 11:15:10 AM 33.6933 -111.7158 358° North 356 410 15,500 3,290 Level Albuquerque Center
Sat 11:16:12 AM 33.8183 -111.7197 359° North 374 430 18,900 3,290 Climbing Albuquerque Center
Sat 11:16:12 AM 33.8183 -111.7197 359° North 374 430 18,900 2,129 Level Albuquerque Center
Sat 11:17:14 AM 33.9292 -111.7231 359° North 389 448 21,100 2,129 Climbing Albuquerque Center
Sat 11:17:14 AM 33.9292 -111.7231 359° North 389 448 21,100 2,032 Level Albuquerque Center
Sat 11:18:16 AM 34.0539 -111.7253 359° North 415 478 23,200 2,032 Climbing Albuquerque Center
Sat 11:18:16 AM 34.0539 -111.7253 359° North 415 478 23,200 1,839 Level Albuquerque Center
Sat 11:19:18 AM 34.1706 -111.6819 17° North 437 503 25,100 1,839 Climbing Albuquerque Center
Sat 11:19:18 AM 34.1706 -111.6819 17° North 437 503 25,100 1,203 Level Albuquerque Center
Sat 11:25:32 AM 34.9475 -111.7933 353° North 483 556 32,600 1,355 Climbing Los Angeles Center
Sat 11:26:32 AM 35.0781 -111.8397 344° North 483 556 34,900 1,770 Climbing Albuquerque Center
Sat 11:27:34 AM 35.2022 -111.8819 344° North 478 550 36,200 1,122 Climbing Albuquerque Center
Sat 11:28:35 AM 35.3264 -111.9253 344° North 471 542 37,200 878 Climbing Albuquerque Center
Sat 11:29:37 AM 35.4519 -111.9692 344° North 472 543 38,000 387 Climbing Albuquerque Center
Sat 11:30:39 AM 35.5878 -112.0583 332° Northwest 470 541 38,000  Level Albuquerque Center
Sat 11:31:43 AM 35.6978 -112.1386 329° Northwest 464 534 38,000  Level Los Angeles Center
Sat 11:32:45 AM 35.8094 -112.2186 330° Northwest 468 539 38,000  Level Los Angeles Center
Sat 11:33:47 AM 35.9386 -112.3133 329° Northwest 466 536 38,000  Level Los Angeles Center
Sat 11:34:49 AM 36.0511 -112.3939 330° Northwest 467 537 38,000  Level Los Angeles Center
Sat 11:35:51 AM 36.1622 -112.4756 329° Northwest 465 535 38,000  Level Los Angeles Center
Sat 11:36:53 AM 36.2717 -112.5567 329° Northwest 459 528 38,000  Level Los Angeles Center
Sat 11:37:54 AM 36.3811 -112.6378 329° Northwest 457 526 38,000  Level Los Angeles Center
Sat 11:38:56 AM 36.4897 -112.7172 330° Northwest 455 524 38,000  Level Los Angeles Center
Sat 11:39:58 AM 36.5975 -112.7975 329° Northwest 452 520 38,000  Level Los Angeles Center
Sat 11:41:00 AM 36.7417 -112.8594 341° North 458 527 38,000  Level Los Angeles Center
Sat 11:42:02 AM 36.8639 -112.9078 342° North 460 529 38,000  Level Los Angeles Center
Sat 11:43:15 AM 36.9847 -112.9578 342° North 458 527 38,000  Level Los Angeles Center
Sat 11:44:18 AM 37.1300 -113.0172 342° North 457 526 38,000  Level Los Angeles Center
Sat 11:45:19 AM 37.2414 -113.0906 332° Northwest 454 522 38,000  Level Los Angeles Center
Sat 11:46:22 AM 37.3481 -113.1758 328° Northwest 450 518 38,000  Level Los Angeles Center
Sat 11:47:23 AM 37.4564 -113.2603 328° Northwest 451 519 38,000  Level Los Angeles Center
Sat 11:48:25 AM 37.5656 -113.3467 328° Northwest 457 526 38,000  Level Los Angeles Center
Sat 11:49:27 AM 37.6972 -113.4511 328° Northwest 461 531 38,000  Level Los Angeles Center
Sat 11:50:28 AM 37.8058 -113.5367 328° Northwest 457 526 38,000  Level Los Angeles Center
Sat 11:51:30 AM 37.9133 -113.6225 328° Northwest 457 526 38,000  Level Los Angeles Center
Sat 11:52:32 AM 38.0206 -113.7086 328° Northwest 454 522 38,000  Level Los Angeles Center
Sat 11:54:01 AM 38.1711 -113.8286 328° Northwest 456 525 38,000  Level Salt Lake Center
Sat 11:55:03 AM 38.2781 -113.9133 328° Northwest 453 521 38,000  Level Salt Lake Center
Sat 11:56:05 AM 38.4061 -114.0172 328° Northwest 454 522 38,000  Level Salt Lake Center
Sat 11:57:07 AM 38.5139 -114.1050 328° Northwest 458 527 38,000  Level Salt Lake Center
Sat 11:58:09 AM 38.6206 -114.1925 327° Northwest 457 526 38,000  Level Salt Lake Center
Sat 11:59:11 AM 38.7247 -114.2786 327° Northwest 451 519 38,000  Level Salt Lake Center
Sat 12:00:13 PM 38.8314 -114.3647 328° Northwest 452 520 38,000  Level Salt Lake Center
Sat 12:01:15 PM 38.9364 -114.4511 327° Northwest 449 517 38,000  Level Salt Lake Center
Sat 12:02:17 PM 39.0639 -114.5581 327° Northwest 455 524 38,000  Level Salt Lake Center
Sat 12:03:19 PM 39.1692 -114.6444 328° Northwest 450 518 38,000  Level Salt Lake Center
Sat 12:04:21 PM 39.2758 -114.7386 326° Northwest 450 518 38,000  Level Salt Lake Center
Sat 12:05:23 PM 39.3786 -114.8225 328° Northwest 455 524 38,000  Level Salt Lake Center
Sat 12:06:26 PM 39.4994 -114.9200 328° Northwest 457 526 38,000  Level Salt Lake Center
Sat 12:07:27 PM 39.5994 -115.0061 326° Northwest 453 521 38,000  Level Salt Lake Center
Sat 12:08:29 PM 39.7172 -115.1058 327° Northwest 452 520 38,000  Level Salt Lake Center
Sat 12:09:31 PM 39.8189 -115.1908 327° Northwest 453 521 38,000  Level Salt Lake Center
Sat 12:10:33 PM 39.9336 -115.2911 326° Northwest 447 514 38,000  Level Salt Lake Center
Sat 12:11:35 PM 40.0347 -115.3769 327° Northwest 451 519 38,000  Level Salt Lake Center
Sat 12:12:39 PM 40.1522 -115.4767 327° Northwest 452 520 38,000  Level Salt Lake Center
Sat 12:13:39 PM 40.2522 -115.5639 326° Northwest 452 520 38,000  Level Salt Lake Center
Sat 12:14:41 PM 40.3700 -115.6644 327° Northwest 453 521 38,000  Level Salt Lake Center
Sat 12:15:43 PM 40.4689 -115.7522 326° Northwest 451 519 38,000  Level Salt Lake Center
Sat 12:16:45 PM 40.5822 -115.8525 326° Northwest 446 513 38,000  Level Salt Lake Center
Sat 12:17:47 PM 40.6817 -115.9411 326° Northwest 452 520 38,000  Level Salt Lake Center
Sat 12:18:49 PM 40.8006 -116.0428 327° Northwest 457 526 38,000  Level Salt Lake Center
Sat 12:19:51 PM 40.9011 -116.1314 326° Northwest 456 525 38,000  Level Salt Lake Center
Sat 12:20:53 PM 40.9972 -116.2197 325° Northwest 447 514 38,000  Level Salt Lake Center
Sat 12:21:56 PM 41.1158 -116.3264 326° Northwest 458 527 38,000  Level Salt Lake Center
Sat 12:22:58 PM 41.2150 -116.4144 326° Northwest 455 524 38,000  Level Salt Lake Center
Sat 12:24:00 PM 41.3286 -116.5181 326° Northwest 446 513 38,000  Level Salt Lake Center
Sat 12:25:02 PM 41.4275 -116.6058 326° Northwest 446 513 38,000  Level Salt Lake Center
Sat 12:26:04 PM 41.5414 -116.7089 326° Northwest 445 512 38,000  Level Salt Lake Center
Sat 12:27:06 PM 41.6383 -116.7983 325° Northwest 443 510 38,000  Level Salt Lake Center
Sat 12:28:08 PM 41.7522 -116.9006 326° Northwest 442 509 38,000  Level Salt Lake Center
Sat 12:29:10 PM 41.8497 -116.9897 326° Northwest 443 510 38,000  Level Salt Lake Center
Sat 12:30:12 PM 41.9625 -117.0922 326° Northwest 439 505 38,000  Level Salt Lake Center
Sat 12:31:14 PM 42.0586 -117.1811 326° Northwest 439 505 38,000 -387 Level Salt Lake Center
Sat 12:32:16 PM 42.1708 -117.2867 325° Northwest 440 506 37,200 -871 Descending Salt Lake Center
Sat 12:33:18 PM 42.2772 -117.3861 325° Northwest 441 507 36,200 -581 Descending Salt Lake Center
Sat 12:34:20 PM 42.3733 -117.4769 325° Northwest 440 506 36,000 -97 Descending Salt Lake Center
Sat 12:35:22 PM 42.4856 -117.5822 325° Northwest 438 504 36,000  Level Salt Lake Center
Sat 12:36:24 PM 42.5819 -117.6725 325° Northwest 438 504 36,000  Level Salt Lake Center
Sat 12:37:26 PM 42.6764 -117.7631 325° Northwest 435 501 36,000  Level Salt Lake Center
Sat 12:38:28 PM 42.7872 -117.8678 325° Northwest 433 498 36,000  Level Salt Lake Center
Sat 12:39:30 PM 42.8819 -117.9594 325° Northwest 435 501 36,000  Level Salt Lake Center
Sat 12:40:32 PM 42.9919 -118.0642 325° Northwest 431 496 36,000  Level Salt Lake Center
Sat 12:41:34 PM 43.0858 -118.1544 325° Northwest 430 495 36,000  Level Salt Lake Center
Sat 12:42:36 PM 43.1881 -118.2525 325° Northwest 425 489 36,000  Level Salt Lake Center
Sat 12:43:38 PM 43.2833 -118.3453 325° Northwest 423 487 36,000  Level Salt Lake Center
Sat 12:44:40 PM 43.3797 -118.4386 325° Northwest 424 488 36,000  Level Salt Lake Center
Sat 12:45:42 PM 43.4764 -118.5339 324° Northwest 427 491 36,000  Level Salt Lake Center
Sat 12:46:44 PM 43.5919 -118.6467 325° Northwest 426 490 36,000  Level Salt Lake Center
Sat 12:47:46 PM 43.6886 -118.7425 324° Northwest 428 493 36,000  Level Salt Lake Center
Sat 12:48:48 PM 43.7861 -118.8364 325° Northwest 429 494 36,000  Level Salt Lake Center
Sat 12:49:47 PM 43.9069 -118.9061 337° Northwest 437 503 36,000  Level Seattle Center
Sat 12:50:48 PM 44.0114 -118.9622 339° North 437 503 36,000  Level Seattle Center
Sat 12:51:49 PM 44.1242 -119.0244 338° Northwest 437 503 36,000  Level Seattle Center
Sat 12:52:50 PM 44.2372 -119.0858 339° North 437 503 36,000  Level Seattle Center
Sat 12:53:51 PM 44.3478 -119.1483 338° Northwest 431 496 36,000  Level Seattle Center
Sat 12:54:52 PM 44.4589 -119.2111 338° Northwest 433 498 36,000  Level Seattle Center
Sat 12:55:53 PM 44.5700 -119.2739 338° Northwest 433 498 36,000  Level Seattle Center
Sat 12:56:55 PM 44.7036 -119.3481 338° Northwest 432 497 36,000  Level Seattle Center
Sat 12:57:56 PM 44.8131 -119.4106 338° Northwest 429 494 36,000  Level Seattle Center
Sat 12:58:57 PM 44.9228 -119.4739 338° Northwest 429 494 36,000  Level Seattle Center
Sat 12:59:58 PM 45.0328 -119.5369 338° Northwest 432 497 36,000  Level Seattle Center
Sat 01:00:59 PM 45.1425 -119.6003 338° Northwest 432 497 36,000  Level Seattle Center
Sat 01:02:00 PM 45.2525 -119.6650 338° Northwest 432 497 36,000  Level Seattle Center
Sat 01:03:01 PM 45.3639 -119.7278 338° Northwest 433 498 36,000  Level Seattle Center
Sat 01:04:02 PM 45.4747 -119.7933 337° Northwest 435 501 36,000  Level Seattle Center
Sat 01:05:04 PM 45.6083 -119.8703 338° Northwest 435 501 36,000  Level Seattle Center
Sat 01:06:05 PM 45.7189 -119.9350 338° Northwest 432 497 36,000  Level Seattle Center
Sat 01:07:06 PM 45.8253 -120.0122 333° Northwest 430 495 36,000  Level Seattle Center
Sat 01:08:07 PM 45.9258 -120.1081 326° Northwest 433 498 36,000  Level Seattle Center
Sat 01:09:08 PM 46.0275 -120.2025 327° Northwest 438 504 36,000  Level Seattle Center
Sat 01:10:09 PM 46.1289 -120.2983 327° Northwest 437 503 36,000  Level Seattle Center
Sat 01:11:10 PM 46.2311 -120.3953 327° Northwest 440 506 36,000 -49 Level Seattle Center
Sat 01:12:11 PM 46.3300 -120.4897 327° Northwest 430 495 35,900 -1,721 Descending Seattle Center
Sat 01:13:12 PM 46.4319 -120.5861 327° Northwest 435 501 32,500 -2,488 Descending Seattle Center
Sat 01:14:14 PM 46.5550 -120.7075 326° Northwest 446 513 30,800 -1,610 Descending Seattle Center
Sat 01:15:15 PM 46.6597 -120.8044 328° Northwest 448 516 29,200 -1,820 Descending Seattle Center
Sat 01:16:16 PM 46.7525 -120.9136 321° Northwest 429 494 27,100 -2,066 Descending Seattle Center
Sat 01:17:17 PM 46.8239 -121.0469 308° West 420 483 25,000 -2,262 Descending Seattle Center
Sat 01:18:18 PM 46.8928 -121.1747 308° West 407 468 22,500 -2,361 Descending Seattle Center
Sat 01:19:19 PM 46.9575 -121.2975 308° West 390 449 20,200 -2,361 Descending Seattle Center
Sat 01:20:20 PM 47.0292 -121.4331 308° West 383 441 17,700 -2,049 Descending Seattle Center
Sat 01:21:22 PM 47.0900 -121.5522 307° West 367 422 16,000 -1,073 Descending Seattle Center
Sat 01:22:23 PM 47.1436 -121.6694 304° West 340 391 15,500 -787 Descending Seattle Center
Sat 01:23:24 PM 47.1994 -121.7883 305° West 330 380 14,400 -1,015 Descending Seattle Center
Sat 01:24:39 PM 47.2611 -121.9256 304° West 325 374 13,200 -1,033 Descending Seattle Center
Sat 01:25:26 PM 47.2989 -122.0075 304° West 320 368 12,300 -1,500 Descending Seattle Center
Sat 01:26:35 PM 47.3542 -122.1325 303° West 314 361 10,300 -1,116 Descending Seattle Center
Sat 01:27:35 PM 47.4200 -122.1811 333° Northwest 272 313 9,900 -942 Descending Seattle Center
Sat 01:28:36 PM 47.4983 -122.1739 North 261 300 8,400 -1,397 Descending Seattle Center
Sat 01:29:31 PM 47.5600 -122.1692 North 265 305 7,200 -1,500 Descending Seattle Center
Sat 01:30:32 PM 47.6431 -122.1664 North 278 320 5,500 -1,377 Descending Seattle Center
Sat 01:31:33 PM 47.6731 -122.2531 297° West 269 310 4,400 -1,180 Descending Seattle Center
Sat 01:32:34 PM 47.6308 -122.3264 230° Southwest 268 308 3,100 -689 Descending Seattle Center
Sat 01:33:35 PM 47.5683 -122.3169 174° South 215 247 3,000 -738 Descending Seattle Center
Sat 01:34:36 PM 47.5175 -122.3175 180° South 171 197 1,600 -1,082 Descending Seattle Center
Sat 01:35:37 PM 47.4775 -122.3197 182° South 140 161 800 -590 Descending Seattle Center
Sat 01:36:38 PM 47.4397 -122.3189 179° South 140 161 400 -393 Descending Seattle Center
Sat 01:38:00 PM 47.4333 -122.3000 176° South  Level FlightAware Approximate

Login

Don't have an account? Register now (free) for customized features, flight alerts, and more!